< < Back
Terminal Aerodrome Forecast


Current Version              Previous Versions:   1  2  3  4  5  6  7  8  9  

Terminal Aerodrome Forecast

464
FTUS42 KGSP 300538
TAFAVL
TAF
KAVL 300538Z 3006/3106 00000KT P6SM FEW040 FEW150
     FM301000 VRB02KT 5SM BR FEW150
      TEMPO 3010/3012 2SM BR SCT003
     FM301300 VRB02KT P6SM FEW150=

Latest METAR

806
SAUS70 KWBC 301700 RRA
MTRAVL
METAR KAVL 301654Z VRB05KT 10SM FEW039 27/16 A3021 RMK AO2 SLP204
T02720156


USA.gov is the U.S. government's official web portal to all federal, state and local government web resources and services.